Time;durP1;ratioP1;P1;durP2;ratioP2;P2;SDS_P1;SDS_P2;PMS_P1;PMS_P2;Temp;Humidity;BMP_temperature;BMP_pressure;BME280_temperature;BME280_humidity;BME280_pressure;Samples;Min_cycle;Max_cycle;Signal;HPM_P1;HPM_P2
2022/05/17 00:01:06;;;;;;;21.80;10.13;;;15.60;99.90;;;;;;5068948;28;20088;-80
2022/05/17 00:03:32;;;;;;;18.23;10.77;;;15.60;99.90;;;;;;5039474;28;20059;-80
2022/05/17 00:05:58;;;;;;;20.17;9.13;;;15.60;99.90;;;;;;5072910;28;20055;-80
2022/05/17 00:08:24;;;;;;;15.02;8.13;;;15.60;99.90;;;;;;5066668;28;20044;-80
2022/05/17 00:10:50;;;;;;;21.80;9.60;;;15.50;99.90;;;;;;5068311;28;20052;-80
2022/05/17 00:13:16;;;;;;;18.05;8.90;;;15.40;99.90;;;;;;5070794;28;20041;-80
2022/05/17 00:15:45;;;;;;;18.27;9.05;;;15.40;99.90;;;;;;5046460;28;20248;-80
2022/05/17 00:18:11;;;;;;;24.05;10.05;;;15.40;99.90;;;;;;5049421;28;20072;-80
2022/05/17 00:20:39;;;;;;;22.70;8.63;;;15.40;99.90;;;;;;5045424;28;20060;-80
2022/05/17 00:23:06;;;;;;;12.82;7.97;;;15.30;99.90;;;;;;5063460;28;20076;-80
2022/05/17 00:25:33;;;;;;;18.33;8.77;;;15.40;99.90;;;;;;5065533;28;20522;-79
2022/05/17 00:27:59;;;;;;;22.92;9.20;;;15.30;99.90;;;;;;5065995;28;20044;-80
2022/05/17 00:30:25;;;;;;;18.27;8.50;;;15.30;99.90;;;;;;5063740;28;20139;-79
2022/05/17 00:32:51;;;;;;;16.40;8.63;;;15.20;99.90;;;;;;5051684;28;20076;-80
2022/05/17 00:35:16;;;;;;;18.95;8.43;;;15.20;99.90;;;;;;5048350;28;20127;-80
2022/05/17 00:37:42;;;;;;;19.98;8.65;;;15.20;99.90;;;;;;5062243;28;20136;-80
2022/05/17 00:40:10;;;;;;;16.70;8.40;;;15.20;99.90;;;;;;5065776;28;20044;-80
2022/05/17 00:42:36;;;;;;;19.85;8.43;;;15.20;99.90;;;;;;5064976;28;20045;-80
2022/05/17 00:45:02;;;;;;;17.95;8.20;;;15.20;99.90;;;;;;5062852;28;21029;-80
2022/05/17 00:47:31;;;;;;;15.80;8.77;;;15.10;99.90;;;;;;5038773;28;20036;-80
2022/05/17 00:50:09;;;;;;;19.45;8.27;;;15.10;99.90;;;;;;5062989;28;20240;-80
2022/05/17 00:52:56;;;;;;;19.75;8.50;;;15.10;99.90;;;;;;5066833;28;20044;-80
2022/05/17 00:55:31;;;;;;;18.77;7.80;;;15.10;99.90;;;;;;5063349;28;20089;-80
2022/05/17 00:58:03;;;;;;;17.92;8.35;;;15.10;99.90;;;;;;5062549;28;20104;-80
2022/05/17 01:00:32;;;;;;;;;;;15.10;99.90;;;;;;5050645;28;20091;-80
2022/05/17 01:03:02;;;;;;;19.27;8.32;;;15.00;99.90;;;;;;5066851;28;20467;-79
2022/05/17 01:05:34;;;;;;;18.48;8.80;;;15.00;99.90;;;;;;5065464;28;20059;-80
2022/05/17 01:08:01;;;;;;;16.60;7.90;;;15.00;99.90;;;;;;5064216;28;20079;-80
2022/05/17 01:10:29;;;;;;;18.38;8.60;;;15.00;99.90;;;;;;5031469;28;20048;-80
2022/05/17 01:15:42;;;;;;;19.55;8.60;;;15.00;99.90;;;;;;5062362;28;20052;-80
2022/05/17 01:18:08;;;;;;;17.13;7.90;;;15.00;99.90;;;;;;5065322;28;20044;-80
2022/05/17 01:20:34;;;;;;;15.90;7.55;;;15.00;99.90;;;;;;5064586;28;20044;-80
2022/05/17 01:23:00;;;;;;;17.10;8.48;;;14.90;99.90;;;;;;5065788;28;20109;-80
2022/05/17 01:25:27;;;;;;;23.20;7.15;;;14.90;99.90;;;;;;5064596;28;20138;-80
2022/05/17 01:27:58;;;;;;;12.00;7.10;;;14.80;99.90;;;;;;5064481;28;20462;-80
2022/05/17 01:30:27;;;;;;;19.90;8.00;;;14.80;99.90;;;;;;5062607;28;20048;-80
2022/05/17 01:32:53;;;;;;;13.95;7.63;;;14.80;99.90;;;;;;5050002;28;20127;-80
2022/05/17 01:35:20;;;;;;;16.75;7.88;;;14.70;99.90;;;;;;5049751;28;20080;-80
2022/05/17 01:37:50;;;;;;;17.35;8.93;;;14.70;99.90;;;;;;5062363;28;20053;-80
2022/05/17 01:40:16;;;;;;;9.95;6.65;;;14.70;99.90;;;;;;5048738;28;20066;-80
2022/05/17 01:42:42;;;;;;;17.80;9.25;;;14.70;99.90;;;;;;5047663;28;20064;-80
2022/05/17 01:45:08;;;;;;;18.13;10.30;;;14.70;99.90;;;;;;5055004;28;20033;-79
2022/05/17 01:47:34;;;;;;;19.17;10.18;;;14.70;99.90;;;;;;5063993;28;20043;-81
2022/05/17 01:49:59;;;;;;;21.75;9.57;;;14.70;99.90;;;;;;5047004;28;20049;-80
2022/05/17 01:52:25;;;;;;;22.02;9.80;;;14.70;99.90;;;;;;5051060;28;20044;-81
2022/05/17 01:54:51;;;;;;;18.08;10.20;;;14.70;99.90;;;;;;5048681;28;20037;-79
2022/05/17 01:57:16;;;;;;;21.35;10.95;;;14.70;99.90;;;;;;5049308;28;20051;-80
2022/05/17 01:59:42;;;;;;;24.65;11.13;;;14.70;99.90;;;;;;5038214;28;20052;-80
2022/05/17 02:02:08;;;;;;;20.65;10.23;;;14.70;99.90;;;;;;5043814;28;20062;-80
2022/05/17 02:04:33;;;;;;;19.67;10.63;;;14.70;99.90;;;;;;5065143;28;20083;-80
2022/05/17 02:07:00;;;;;;;24.50;11.20;;;14.60;99.90;;;;;;5048954;28;20060;-80
2022/05/17 02:09:25;;;;;;;21.73;10.25;;;14.60;99.90;;;;;;5045508;28;20186;-81
2022/05/17 02:11:51;;;;;;;23.90;11.23;;;14.60;99.90;;;;;;5030576;28;20052;-80
2022/05/17 02:14:17;;;;;;;21.50;10.98;;;14.60;99.90;;;;;;5047078;28;20056;-80
2022/05/17 02:16:43;;;;;;;21.25;10.75;;;14.50;99.90;;;;;;5046921;28;20051;-80
2022/05/17 02:19:10;;;;;;;18.48;11.10;;;14.50;99.90;;;;;;5065923;28;20063;-80
2022/05/17 02:21:39;;;;;;;24.00;11.48;;;14.50;99.90;;;;;;5061230;28;20037;-80
2022/05/17 02:24:05;;;;;;;23.25;11.27;;;14.50;99.90;;;;;;5046884;28;20044;-79
2022/05/17 02:26:32;;;;;;;23.20;12.18;;;14.50;99.90;;;;;;5020783;28;20063;-81
2022/05/17 02:28:58;;;;;;;26.23;12.10;;;14.40;99.90;;;;;;5036755;28;20048;-81
2022/05/17 02:31:24;;;;;;;19.13;11.52;;;14.40;99.90;;;;;;5048735;28;20055;-80
2022/05/17 02:33:50;;;;;;;21.52;11.52;;;14.50;99.90;;;;;;5012989;28;20037;-80
2022/05/17 02:36:16;;;;;;;25.05;12.45;;;14.40;99.90;;;;;;5047175;28;20040;-80
2022/05/17 02:38:43;;;;;;;21.88;11.73;;;14.40;99.90;;;;;;5048100;28;20047;-81
2022/05/17 02:41:10;;;;;;;25.02;11.80;;;14.40;99.90;;;;;;5063187;28;20557;-81
2022/05/17 02:43:37;;;;;;;29.70;11.85;;;14.40;99.90;;;;;;5062932;28;20136;-81
2022/05/17 02:46:03;;;;;;;23.83;10.80;;;14.30;99.90;;;;;;5031197;28;20047;-81
2022/05/17 02:48:29;;;;;;;20.48;11.10;;;14.30;99.90;;;;;;5046800;28;20044;-81
2022/05/17 02:50:55;;;;;;;19.98;11.77;;;14.30;99.90;;;;;;5045452;28;20156;-80
2022/05/17 02:53:21;;;;;;;20.40;11.03;;;14.30;99.90;;;;;;5045942;28;20044;-80
2022/05/17 02:55:47;;;;;;;23.08;10.95;;;14.30;99.90;;;;;;5028636;28;20029;-80
2022/05/17 02:58:13;;;;;;;25.63;11.48;;;14.30;99.90;;;;;;5060688;28;20059;-79
2022/05/17 03:00:38;;;;;;;21.47;11.10;;;14.20;99.90;;;;;;5063139;28;20063;-80
2022/05/17 03:03:04;;;;;;;23.25;11.18;;;14.20;99.90;;;;;;5061476;28;20403;-80
2022/05/17 03:05:30;;;;;;;21.60;12.13;;;14.20;99.90;;;;;;5047866;28;20041;-78
2022/05/17 03:07:56;;;;;;;26.00;11.43;;;14.20;99.90;;;;;;5062490;28;20080;-80
2022/05/17 03:10:21;;;;;;;26.23;11.48;;;14.20;99.90;;;;;;5045059;28;20049;-80
2022/05/17 03:12:47;;;;;;;22.87;12.27;;;14.20;99.90;;;;;;5064001;28;20042;-78
2022/05/17 03:15:20;;;;;;;21.90;11.82;;;14.10;99.90;;;;;;5063137;28;20037;-80
2022/05/17 03:17:46;;;;;;;23.13;11.20;;;14.10;99.90;;;;;;5062336;28;20045;-80
2022/05/17 03:20:12;;;;;;;23.52;10.82;;;14.10;99.90;;;;;;5048438;28;20049;-80
2022/05/17 03:22:38;;;;;;;19.27;10.87;;;14.10;99.90;;;;;;5049025;28;20527;-80
2022/05/17 03:25:04;;;;;;;24.47;11.70;;;14.10;99.90;;;;;;5061848;28;20075;-80
2022/05/17 03:27:29;;;;;;;28.37;11.00;;;14.10;99.90;;;;;;5064818;28;20561;-79
2022/05/17 03:29:56;;;;;;;18.70;11.20;;;14.00;99.90;;;;;;5061760;28;20045;-82
2022/05/17 03:32:22;;;;;;;25.30;12.07;;;14.00;99.90;;;;;;5062614;28;20415;-81
2022/05/17 03:34:48;;;;;;;19.60;10.73;;;14.00;99.90;;;;;;5063345;28;20044;-81
2022/05/17 03:37:14;;;;;;;22.73;11.47;;;14.00;99.90;;;;;;5046611;28;20044;-82
2022/05/17 03:39:39;;;;;;;19.90;11.25;;;14.00;99.90;;;;;;5061286;28;20056;-81
2022/05/17 03:42:09;;;;;;;22.08;11.48;;;14.00;99.90;;;;;;5061826;28;20126;-81
2022/05/17 03:44:36;;;;;;;24.35;12.00;;;14.00;99.90;;;;;;5063716;28;20049;-81
2022/05/17 03:47:06;;;;;;;18.88;11.07;;;14.00;99.90;;;;;;5061600;28;20049;-81
2022/05/17 03:49:32;;;;;;;19.85;10.85;;;14.00;99.90;;;;;;5065358;28;20086;-81
2022/05/17 03:51:58;;;;;;;20.40;10.85;;;13.90;99.90;;;;;;5050570;28;20052;-80
2022/05/17 03:54:25;;;;;;;23.95;10.63;;;13.90;99.90;;;;;;5065097;28;20045;-80
2022/05/17 03:56:51;;;;;;;18.17;9.90;;;13.90;99.90;;;;;;5066169;28;20076;-80
2022/05/17 03:59:17;;;;;;;18.50;10.45;;;13.90;99.90;;;;;;5049479;28;20068;-81
2022/05/17 04:01:44;;;;;;;18.53;10.43;;;13.90;99.90;;;;;;5067682;28;20067;-81
2022/05/17 04:04:11;;;;;;;20.30;10.82;;;13.90;99.90;;;;;;5048329;28;20045;-81
2022/05/17 04:06:37;;;;;;;19.60;10.47;;;13.90;99.90;;;;;;5065090;28;20171;-81
2022/05/17 04:09:03;;;;;;;21.17;11.23;;;13.90;99.90;;;;;;5067761;28;20048;-79
2022/05/17 04:11:29;;;;;;;14.80;8.73;;;13.90;99.90;;;;;;5066181;28;20049;-79
2022/05/17 04:13:54;;;;;;;17.17;9.38;;;13.90;99.90;;;;;;5065311;28;20033;-80
2022/05/17 04:16:20;;;;;;;20.95;10.82;;;13.90;99.90;;;;;;5068827;28;20067;-81
2022/05/17 04:18:47;;;;;;;26.10;10.83;;;13.90;99.90;;;;;;5050455;28;21897;-80
2022/05/17 04:21:13;;;;;;;19.75;10.15;;;14.00;99.90;;;;;;5066379;28;20045;-81
2022/05/17 04:23:39;;;;;;;22.83;10.23;;;14.00;99.90;;;;;;5049032;28;20538;-80
2022/05/17 04:26:05;;;;;;;23.90;10.95;;;14.00;99.90;;;;;;5066225;28;20087;-80
2022/05/17 04:28:31;;;;;;;21.92;11.65;;;14.10;99.90;;;;;;5065119;28;20075;-81
2022/05/17 04:30:57;;;;;;;20.77;11.03;;;14.10;99.90;;;;;;5051146;28;20040;-79
2022/05/17 04:33:24;;;;;;;24.48;11.10;;;14.20;99.90;;;;;;5046390;28;20036;-80
2022/05/17 04:35:50;;;;;;;18.88;10.50;;;14.20;99.90;;;;;;5063567;28;20056;-80
2022/05/17 04:38:16;;;;;;;19.20;11.52;;;14.20;99.90;;;;;;5050796;28;20190;-80
2022/05/17 04:40:42;;;;;;;24.60;11.47;;;14.20;99.90;;;;;;5065763;28;20538;-80
2022/05/17 04:43:09;;;;;;;25.83;11.65;;;14.30;99.90;;;;;;5064629;28;20049;-80
2022/05/17 04:45:35;;;;;;;22.90;10.73;;;14.30;99.90;;;;;;5065249;28;20084;-80
2022/05/17 04:48:02;;;;;;;21.83;11.13;;;14.30;99.90;;;;;;5065821;28;20053;-80
2022/05/17 04:50:29;;;;;;;21.83;10.88;;;14.40;99.90;;;;;;5045888;28;20135;-80
2022/05/17 04:52:55;;;;;;;21.02;10.40;;;14.40;99.90;;;;;;5063521;28;20523;-80
2022/05/17 04:55:21;;;;;;;24.85;11.60;;;14.50;99.90;;;;;;5066846;28;20092;-80
2022/05/17 04:57:48;;;;;;;20.50;11.07;;;14.50;99.90;;;;;;5064706;28;20045;-80
2022/05/17 05:00:18;;;;;;;21.40;10.85;;;14.60;99.90;;;;;;5048911;28;20065;-80
2022/05/17 05:02:44;;;;;;;19.20;10.68;;;14.60;99.90;;;;;;5065231;28;20087;-80
2022/05/17 05:05:11;;;;;;;22.40;11.10;;;14.60;99.90;;;;;;5068291;28;20189;-78
2022/05/17 05:07:36;;;;;;;21.00;10.70;;;14.70;99.90;;;;;;5052169;28;20073;-87
2022/05/17 05:10:03;;;;;;;21.98;10.32;;;14.70;99.90;;;;;;5041387;28;20045;-87
2022/05/17 05:12:30;;;;;;;24.13;10.65;;;14.80;99.90;;;;;;5062621;28;20076;-83
2022/05/17 05:14:57;;;;;;;25.77;10.45;;;14.80;99.90;;;;;;5070648;28;20056;-84
2022/05/17 05:17:22;;;;;;;23.15;10.73;;;14.80;99.90;;;;;;5034603;28;20052;-83
2022/05/17 05:19:48;;;;;;;22.10;11.02;;;14.80;99.90;;;;;;5064570;28;20166;-85
2022/05/17 05:22:14;;;;;;;20.20;10.10;;;14.90;99.90;;;;;;5064490;28;20049;-86
2022/05/17 05:24:39;;;;;;;23.00;10.75;;;14.90;99.90;;;;;;5023570;28;20075;-83
2022/05/17 05:27:05;;;;;;;19.30;9.32;;;14.90;99.90;;;;;;5043779;28;20049;-88
2022/05/17 05:29:31;;;;;;;21.30;11.23;;;15.00;99.90;;;;;;5045423;28;20119;-88
2022/05/17 05:31:57;;;;;;;25.85;11.18;;;15.00;99.90;;;;;;5050338;28;20173;-87
2022/05/17 05:34:23;;;;;;;24.20;10.10;;;15.10;99.90;;;;;;5044176;28;20059;-84
2022/05/17 05:36:48;;;;;;;17.60;10.55;;;15.10;99.90;;;;;;5050735;28;20055;-83
2022/05/17 05:39:15;;;;;;;21.30;10.60;;;15.20;99.90;;;;;;5059871;28;20053;-83
2022/05/17 05:41:41;;;;;;;20.25;10.57;;;15.20;99.90;;;;;;5047427;28;20120;-83
2022/05/17 05:44:07;;;;;;;17.58;9.80;;;15.20;99.90;;;;;;5059659;28;20059;-82
2022/05/17 05:46:32;;;;;;;18.98;10.65;;;15.30;99.90;;;;;;5044235;28;20105;-86
2022/05/17 05:48:58;;;;;;;23.27;9.98;;;15.30;99.90;;;;;;5046547;28;20059;-85
2022/05/17 05:51:24;;;;;;;23.05;10.05;;;15.40;99.90;;;;;;5047152;28;20076;-86
2022/05/17 05:53:50;;;;;;;17.83;9.95;;;15.50;99.90;;;;;;5059984;28;20052;-85
2022/05/17 05:56:16;;;;;;;20.15;9.88;;;15.60;99.90;;;;;;5041935;28;20049;-85
2022/05/17 05:58:45;;;;;;;21.10;9.70;;;15.80;99.90;;;;;;5046880;28;20048;-88
2022/05/17 06:01:11;;;;;;;23.25;10.40;;;16.00;99.90;;;;;;5039365;28;20048;-85
2022/05/17 06:03:37;;;;;;;18.63;9.73;;;16.10;99.90;;;;;;5043210;28;20155;-84
2022/05/17 06:06:04;;;;;;;22.73;9.15;;;16.30;99.90;;;;;;5060208;28;20606;-82
2022/05/17 06:08:30;;;;;;;20.60;8.25;;;16.50;99.90;;;;;;5059551;28;20063;-82
2022/05/17 06:10:56;;;;;;;13.65;7.95;;;16.60;99.90;;;;;;5034939;28;20040;-80
2022/05/17 06:13:22;;;;;;;16.80;7.85;;;16.80;99.90;;;;;;5060721;28;20056;-81
2022/05/17 06:15:51;;;;;;;16.88;7.80;;;16.80;99.90;;;;;;5061143;28;20131;-81
2022/05/17 06:18:16;;;;;;;23.65;8.90;;;16.80;99.90;;;;;;5071355;28;20134;-82
2022/05/17 06:20:51;;;;;;;17.77;8.32;;;16.80;99.90;;;;;;5071629;28;20036;-82
2022/05/17 06:23:17;;;;;;;15.40;7.97;;;16.80;99.90;;;;;;5055930;28;20052;-82
2022/05/17 06:25:43;;;;;;;16.75;8.05;;;17.00;99.90;;;;;;5073183;28;20075;-82
2022/05/17 06:28:09;;;;;;;15.18;7.78;;;17.00;99.90;;;;;;5056086;28;20080;-82
2022/05/17 06:30:35;;;;;;;18.17;8.23;;;17.10;99.90;;;;;;5072104;28;20044;-81
2022/05/17 06:33:01;;;;;;;13.73;7.20;;;17.20;99.90;;;;;;5072458;28;20100;-82
2022/05/17 06:35:27;;;;;;;16.55;7.50;;;17.20;99.90;;;;;;5067451;28;20040;-81
2022/05/17 06:37:53;;;;;;;16.73;8.00;;;17.20;99.90;;;;;;5055910;28;20412;-81
2022/05/17 06:40:19;;;;;;;19.13;7.93;;;17.20;99.90;;;;;;5062318;28;20525;-82
2022/05/17 06:42:46;;;;;;;16.77;8.27;;;17.30;99.90;;;;;;5072700;28;20612;-81
2022/05/17 06:45:12;;;;;;;15.52;8.20;;;17.30;99.90;;;;;;5072004;28;20036;-81
2022/05/17 06:47:38;;;;;;;14.70;7.97;;;17.50;99.90;;;;;;5072818;28;20351;-82
2022/05/17 06:50:06;;;;;;;13.23;7.65;;;17.50;99.90;;;;;;5054434;28;20053;-81
2022/05/17 06:52:31;;;;;;;17.55;7.63;;;17.60;99.90;;;;;;5056350;28;20193;-82
2022/05/17 06:54:57;;;;;;;16.63;7.85;;;17.60;99.90;;;;;;5051983;28;20268;-82
2022/05/17 06:57:23;;;;;;;18.23;8.20;;;17.70;99.90;;;;;;5055369;28;20048;-82
2022/05/17 06:59:49;;;;;;;15.18;7.50;;;17.80;99.90;;;;;;5071371;28;20052;-82
2022/05/17 07:02:15;;;;;;;15.43;7.72;;;17.90;99.90;;;;;;5072091;28;20135;-82
2022/05/17 07:04:41;;;;;;;14.75;6.85;;;18.00;99.90;;;;;;5072441;28;20215;-82
2022/05/17 07:07:08;;;;;;;16.27;6.57;;;18.00;99.90;;;;;;5071575;28;20056;-81
2022/05/17 07:09:36;;;;;;;12.93;6.80;;;18.10;99.90;;;;;;5038858;28;20479;-82
2022/05/17 07:14:47;;;;;;;13.73;6.22;;;18.20;99.90;;;;;;5071111;28;20072;-81
2022/05/17 07:17:16;;;;;;;15.45;6.53;;;18.30;99.90;;;;;;5055751;28;20048;-81
2022/05/17 07:19:42;;;;;;;12.35;7.03;;;18.50;99.90;;;;;;5061363;28;20083;-82
2022/05/17 07:22:08;;;;;;;15.40;6.63;;;18.60;99.90;;;;;;5072533;28;20060;-82
2022/05/17 07:24:36;;;;;;;11.98;5.78;;;18.60;99.90;;;;;;5075041;28;20044;-81
2022/05/17 07:27:05;;;;;;;13.55;6.78;;;18.80;99.90;;;;;;5059585;28;20044;-82
2022/05/17 07:29:30;;;;;;;15.50;6.15;;;18.90;99.90;;;;;;5074906;28;20067;-82
2022/05/17 07:31:56;;;;;;;14.13;6.38;;;19.00;99.90;;;;;;5074298;28;20098;-82
2022/05/17 07:34:22;;;;;;;14.55;6.68;;;19.00;99.90;;;;;;5075517;28;20076;-81
2022/05/17 07:36:49;;;;;;;13.18;5.80;;;19.00;99.90;;;;;;5075122;28;20052;-82
2022/05/17 07:39:15;;;;;;;13.70;5.68;;;19.10;99.90;;;;;;5042499;28;20044;-82
2022/05/17 07:41:41;;;;;;;12.18;6.45;;;19.20;99.90;;;;;;5075578;28;20051;-81
2022/05/17 07:44:08;;;;;;;13.07;5.30;;;19.20;99.90;;;;;;5075877;28;20415;-82
2022/05/17 07:46:34;;;;;;;13.30;5.72;;;19.20;99.90;;;;;;5058643;28;20054;-82
2022/05/17 07:49:01;;;;;;;13.40;5.28;;;19.20;99.90;;;;;;5076044;28;20058;-82
2022/05/17 07:51:27;;;;;;;13.60;5.85;;;19.30;99.90;;;;;;5051679;28;20061;-81
2022/05/17 07:53:54;;;;;;;11.25;5.13;;;19.40;99.90;;;;;;5075078;28;20052;-81
2022/05/17 07:56:20;;;;;;;12.75;5.15;;;19.50;99.90;;;;;;5073895;28;20102;-83
2022/05/17 07:58:45;;;;;;;9.95;5.57;;;19.60;99.90;;;;;;5068046;28;20068;-81
2022/05/17 08:01:12;;;;;;;10.63;5.68;;;19.60;99.90;;;;;;5063447;28;20061;-82
2022/05/17 08:03:38;;;;;;;13.23;5.65;;;19.50;99.90;;;;;;5043017;28;20052;-81
2022/05/17 08:06:03;;;;;;;12.07;5.03;;;19.60;99.90;;;;;;5058385;28;20105;-80
2022/05/17 08:08:29;;;;;;;8.68;4.65;;;19.70;99.90;;;;;;5075197;28;20150;-81
2022/05/17 08:10:55;;;;;;;17.67;5.13;;;19.80;99.90;;;;;;5063814;28;20444;-82
2022/05/17 08:13:22;;;;;;;10.13;4.55;;;20.00;99.90;;;;;;5075173;28;20113;-82
2022/05/17 08:15:49;;;;;;;11.05;5.07;;;20.20;99.90;;;;;;5066202;28;20037;-81
2022/05/17 08:18:16;;;;;;;10.13;4.57;;;20.30;99.90;;;;;;5075088;28;20048;-82
2022/05/17 08:20:42;;;;;;;11.73;4.93;;;20.40;99.90;;;;;;5074118;28;20045;-81
2022/05/17 08:23:07;;;;;;;9.95;5.00;;;20.40;99.90;;;;;;5075066;28;20079;-81
2022/05/17 08:28:18;;;;;;;11.73;4.43;;;20.60;99.90;;;;;;5076055;28;20132;-81
2022/05/17 08:30:45;;;;;;;8.63;4.47;;;20.60;99.90;;;;;;5075189;28;20052;-81
2022/05/17 08:33:15;;;;;;;13.50;4.53;;;20.60;99.90;;;;;;5074505;28;20093;-82
2022/05/17 08:35:50;;;;;;;9.50;4.63;;;20.70;99.90;;;;;;5077170;28;20044;-81
2022/05/17 08:38:22;;;;;;;9.80;4.43;;;20.80;99.90;;;;;;5074387;28;20098;-81
2022/05/17 08:41:05;;;;;;;9.05;3.70;;;21.00;99.90;;;;;;5073824;28;20132;-81
2022/05/17 08:43:36;;;;;;;9.10;3.95;;;21.00;99.90;;;;;;5070099;28;20041;-81
2022/05/17 08:46:21;;;;;;;9.82;3.95;;;21.10;99.90;;;;;;5051262;28;20112;-82
2022/05/17 08:48:50;;;;;;;11.10;3.65;;;21.20;99.90;;;;;;5073486;28;20115;-81
2022/05/17 08:51:23;;;;;;;7.53;3.63;;;21.30;99.90;;;;;;5070772;28;20067;-81
2022/05/17 08:53:48;;;;;;;6.63;3.25;;;21.40;99.90;;;;;;5054010;28;20092;-82
2022/05/17 08:56:16;;;;;;;8.98;3.15;;;21.50;99.90;;;;;;5058315;28;20067;-80
2022/05/17 08:58:47;;;;;;;7.85;3.47;;;21.60;99.90;;;;;;5072056;28;20603;-79
2022/05/17 09:01:43;;;;;;;6.13;2.83;;;21.80;99.90;;;;;;5073780;28;20060;-81
2022/05/17 09:04:42;;;;;;;8.35;3.05;;;21.80;99.90;;;;;;5064099;28;20929;-81
2022/05/17 09:07:18;;;;;;;7.93;2.38;;;21.80;99.90;;;;;;5073248;28;20082;-83
2022/05/17 09:09:59;;;;;;;8.13;3.05;;;21.90;99.90;;;;;;5073415;28;20438;-82
2022/05/17 09:12:41;;;;;;;5.63;2.40;;;22.10;99.90;;;;;;5074073;28;20060;-82
2022/05/17 09:15:07;;;;;;;7.38;2.50;;;22.10;99.90;;;;;;5073687;28;20048;-82
2022/05/17 09:17:34;;;;;;;6.70;2.28;;;22.10;99.90;;;;;;5074125;28;20044;-81
2022/05/17 09:20:02;;;;;;;6.40;2.20;;;22.20;99.90;;;;;;5072861;28;20411;-81
2022/05/17 09:22:28;;;;;;;8.40;2.70;;;22.10;99.90;;;;;;5073976;28;20099;-82
2022/05/17 09:25:12;;;;;;;9.15;2.30;;;22.20;99.90;;;;;;5073550;28;20060;-83
2022/05/17 09:27:39;;;;;;;9.75;2.28;;;22.20;99.90;;;;;;5073741;28;20060;-83
2022/05/17 09:30:30;;;;;;;5.90;2.30;;;22.40;99.90;;;;;;5057008;28;20037;-81
2022/05/17 09:33:03;;;;;;;5.97;2.17;;;22.50;99.90;;;;;;5072912;28;20087;-82
2022/05/17 09:35:29;;;;;;;6.47;1.90;;;22.70;99.90;;;;;;5073812;28;20107;-83
2022/05/17 09:37:58;;;;;;;7.78;2.50;;;22.70;99.90;;;;;;5056459;28;20068;-81
2022/05/17 09:40:35;;;;;;;8.00;2.65;;;22.80;99.90;;;;;;5072253;28;20049;-82
2022/05/17 09:43:06;;;;;;;7.45;2.53;;;22.90;99.90;;;;;;5073654;28;20056;-82
2022/05/17 09:45:46;;;;;;;7.88;2.30;;;22.90;99.90;;;;;;5072786;28;20096;-82
2022/05/17 09:48:24;;;;;;;10.13;2.58;;;23.00;99.90;;;;;;5073802;28;20052;-82
2022/05/17 09:53:40;;;;;;;7.13;2.60;;;23.10;99.90;;;;;;5058495;28;20048;-82
2022/05/17 09:56:07;;;;;;;8.80;2.20;;;23.30;99.90;;;;;;5068197;28;20455;-82
2022/05/17 09:58:36;;;;;;;9.63;2.80;;;23.30;99.90;;;;;;5055082;28;20126;-82
2022/05/17 10:01:15;;;;;;;7.65;2.45;;;23.20;99.90;;;;;;5068734;28;20064;-83
2022/05/17 10:03:44;;;;;;;6.50;2.45;;;23.30;99.90;;;;;;5068128;28;20512;-82
2022/05/17 10:06:26;;;;;;;5.90;2.33;;;23.40;99.90;;;;;;5068221;28;20066;-81
2022/05/17 10:09:10;;;;;;;9.18;2.15;;;23.50;99.90;;;;;;5061380;28;20097;-82
2022/05/17 10:11:57;;;;;;;5.32;1.70;;;23.60;97.80;;;;;;5059997;28;20040;-81
2022/05/17 10:14:43;;;;;;;4.70;1.90;;;23.60;99.90;;;;;;5071067;28;20056;-82
2022/05/17 10:17:49;;;;;;;6.40;1.70;;;23.60;99.90;;;;;;5063037;28;20059;-82
2022/05/17 10:20:26;;;;;;;3.50;1.50;;;23.60;94.00;;;;;;5071448;28;20056;-81
2022/05/17 10:23:11;;;;;;;8.25;2.22;;;23.70;96.70;;;;;;5056033;28;20044;-81
2022/05/17 10:25:42;;;;;;;3.10;1.45;;;23.60;92.40;;;;;;5064187;28;20053;-82
2022/05/17 10:28:30;;;;;;;4.65;1.70;;;23.60;99.90;;;;;;5064053;28;20045;-81
2022/05/17 10:31:22;;;;;;;4.72;1.65;;;23.80;95.20;;;;;;5071205;28;20286;-81
2022/05/17 10:34:06;;;;;;;6.10;1.77;;;24.00;79.20;;;;;;5071545;28;20052;-81
2022/05/17 10:36:36;;;;;;;5.40;1.80;;;23.90;94.90;;;;;;5072569;28;20468;-82
2022/05/17 10:39:30;;;;;;;3.88;1.90;;;24.10;72.10;;;;;;5072718;28;20044;-81
2022/05/17 10:41:57;;;;;;;6.00;2.05;;;24.10;90.30;;;;;;5070247;28;20079;-81
2022/05/17 10:44:27;;;;;;;6.68;1.60;;;24.20;86.80;;;;;;5072637;28;20071;-82
2022/05/17 10:47:07;;;;;;;6.55;1.88;;;24.40;80.70;;;;;;5055818;28;20565;-81
2022/05/17 10:49:52;;;;;;;4.30;1.65;;;24.50;81.50;;;;;;5070787;28;20486;-82
2022/05/17 10:52:46;;;;;;;6.40;1.90;;;24.50;78.20;;;;;;5072784;28;20049;-82
2022/05/17 10:55:25;;;;;;;7.28;1.55;;;24.50;70.10;;;;;;5064476;28;20044;-81
2022/05/17 10:58:17;;;;;;;5.22;1.67;;;24.50;80.90;;;;;;5046013;28;20049;-81
2022/05/17 11:00:58;;;;;;;5.38;1.65;;;24.30;79.50;;;;;;5064514;28;20110;-81
2022/05/17 11:03:55;;;;;;;4.60;1.53;;;24.10;83.30;;;;;;5058151;28;20048;-82
2022/05/17 11:06:47;;;;;;;6.93;1.95;;;23.90;85.20;;;;;;5071714;28;20040;-82
2022/05/17 11:09:33;;;;;;;5.30;1.52;;;23.80;87.90;;;;;;5053975;28;20057;-82
2022/05/17 11:12:05;;;;;;;5.57;2.17;;;23.80;91.30;;;;;;5064091;28;20327;-82
2022/05/17 11:14:34;;;;;;;4.25;1.83;;;23.90;87.70;;;;;;5071762;28;20045;-82
2022/05/17 11:17:28;;;;;;;6.78;2.25;;;24.10;88.40;;;;;;5072214;28;20045;-82
2022/05/17 11:20:19;;;;;;;4.97;2.10;;;24.50;82.40;;;;;;5070832;28;20053;-82
2022/05/17 11:22:54;;;;;;;4.80;1.83;;;24.60;77.80;;;;;;5072034;28;20053;-82
2022/05/17 11:25:29;;;;;;;7.30;2.20;;;24.60;82.00;;;;;;5069421;28;20052;-82
2022/05/17 11:28:13;;;;;;;8.00;2.15;;;24.80;79.60;;;;;;5071921;28;20040;-83
2022/05/17 11:30:51;;;;;;;4.75;2.08;;;24.60;87.10;;;;;;5054955;28;20045;-82
2022/05/17 11:33:39;;;;;;;5.45;2.20;;;24.60;90.20;;;;;;5071577;28;20056;-82
2022/05/17 11:36:12;;;;;;;5.65;2.03;;;24.70;82.80;;;;;;5055283;28;20048;-82
2022/05/17 11:38:38;;;;;;;7.40;2.17;;;24.70;77.50;;;;;;5072582;28;20040;-83
2022/05/17 11:41:07;;;;;;;6.10;2.08;;;24.70;78.40;;;;;;5071145;28;20041;-82
2022/05/17 11:43:54;;;;;;;9.23;2.17;;;24.80;80.50;;;;;;5072339;28;20072;-82
2022/05/17 11:46:29;;;;;;;6.20;1.67;;;24.80;77.80;;;;;;5071539;28;20052;-82
2022/05/17 11:48:55;;;;;;;5.80;1.95;;;24.70;81.70;;;;;;5055080;28;20059;-81
2022/05/17 11:51:23;;;;;;;4.75;1.95;;;24.40;78.20;;;;;;5072117;28;20056;-80
2022/05/17 11:53:51;;;;;;;5.63;1.77;;;24.20;82.10;;;;;;5054525;28;20070;-82
2022/05/17 11:56:17;;;;;;;6.82;2.08;;;24.10;85.20;;;;;;5055857;28;20359;-82
2022/05/17 11:58:45;;;;;;;4.80;1.98;;;24.00;83.60;;;;;;5071554;28;20048;-82
2022/05/17 12:01:37;;;;;;;5.85;1.80;;;23.90;85.20;;;;;;5072470;28;20055;-82
2022/05/17 12:04:22;;;;;;;6.95;1.95;;;23.80;92.40;;;;;;5067868;28;20061;-82
2022/05/17 12:06:48;;;;;;;8.38;1.85;;;23.70;94.00;;;;;;5071382;28;20423;-82
2022/05/17 12:09:22;;;;;;;5.80;1.90;;;24.00;95.20;;;;;;5055537;28;20048;-82
2022/05/17 12:12:00;;;;;;;7.03;2.38;;;24.20;83.30;;;;;;5073773;28;20051;-83
2022/05/17 12:14:34;;;;;;;5.35;2.47;;;24.50;91.30;;;;;;5058424;28;20036;-83
2022/05/17 12:17:11;;;;;;;6.85;2.08;;;24.80;82.20;;;;;;5075432;28;20040;-83
2022/05/17 12:19:58;;;;;;;7.07;2.17;;;24.80;85.50;;;;;;5057864;28;20048;-83
2022/05/17 12:22:41;;;;;;;5.00;2.42;;;25.10;84.10;;;;;;5051142;28;20036;-83
2022/05/17 12:25:13;;;;;;;9.52;2.55;;;25.30;86.10;;;;;;5074747;28;20044;-82
2022/05/17 12:27:44;;;;;;;6.03;2.28;;;25.40;80.80;;;;;;5057862;28;20044;-83
2022/05/17 12:33:17;;;;;;;9.05;3.22;;;25.00;80.30;;;;;;5059475;28;20056;-82
2022/05/17 12:35:44;;;;;;;8.27;2.75;;;24.90;90.30;;;;;;5057750;28;20036;-83
2022/05/17 12:43:45;;;;;;;11.07;3.00;;;24.90;99.10;;;;;;5077209;28;20052;-83
2022/05/17 12:46:31;;;;;;;4.78;2.42;;;25.10;96.60;;;;;;5073502;28;20040;-83
2022/05/17 12:49:00;;;;;;;7.60;2.58;;;25.10;95.90;;;;;;5076040;28;20048;-83
2022/05/17 12:51:27;;;;;;;8.10;2.70;;;25.00;92.90;;;;;;5057536;28;20037;-83
2022/05/17 12:53:55;;;;;;;6.45;2.85;;;24.90;93.30;;;;;;5057605;28;20499;-84
2022/05/17 12:56:20;;;;;;;9.77;2.67;;;24.80;96.40;;;;;;5075078;28;20514;-82
2022/05/17 12:58:51;;;;;;;7.38;2.85;;;24.60;95.20;;;;;;5073431;28;20068;-83
2022/05/17 13:01:50;;;;;;;4.43;2.38;;;24.50;93.40;;;;;;5074443;28;20051;-82
2022/05/17 13:04:16;;;;;;;8.48;2.85;;;24.30;99.90;;;;;;5058954;28;20048;-82
2022/05/17 13:06:51;;;;;;;9.63;2.95;;;24.40;97.70;;;;;;5036258;28;20056;-83
2022/05/17 13:09:22;;;;;;;9.02;2.80;;;24.50;98.10;;;;;;5057938;28;20045;-80
2022/05/17 13:11:49;;;;;;;12.98;3.00;;;24.80;99.90;;;;;;5073499;28;20048;-82